AXB4586 SEQM-SPZO
Flight info
| Callsign | AXB4586 |
|---|---|
| Flight time | 1h 57m |
| Altitude | 39000 |
| Route | VURIS3 VURIS UP408 NILSA DCT DARKI |
| Aircraft | A20N/M-SDE2E3FGHIRWXY/LB1 |
Departure
| Time | 2026-05-06 16:22 |
|---|---|
| Airport | Mariscal Sucre International Airport (SEQM) |
Arrival
| Time | 2026-05-06 18:20 |
|---|---|
| Airport | Alejandro Velasco Astete International Airport (SPZO) |
| Time | Latitude | Longitude | Altitude | Speed | Heading |
|---|---|---|---|---|---|
| 2026-05-06 16:17 | -0.12234 | -78.35619 | 7840 ft | 13 kts | 355° |
| 2026-05-06 16:17 | -0.12136 | -78.35624 | 7835 ft | 16 kts | 357° |
| 2026-05-06 16:17 | -0.12011 | -78.35630 | 7832 ft | 21 kts | 357° |
| 2026-05-06 16:17 | -0.11850 | -78.35637 | 7821 ft | 25 kts | 358° |
| 2026-05-06 16:18 | -0.11664 | -78.35644 | 7816 ft | 28 kts | 358° |
| 2026-05-06 16:18 | -0.11456 | -78.35653 | 7808 ft | 31 kts | 358° |
| 2026-05-06 16:18 | -0.11312 | -78.35659 | 7804 ft | 25 kts | 358° |
| 2026-05-06 16:19 | -0.11184 | -78.35664 | 7800 ft | 27 kts | 358° |
| 2026-05-06 16:19 | -0.10991 | -78.35673 | 7794 ft | 29 kts | 356° |
| 2026-05-06 16:19 | -0.10780 | -78.35683 | 7786 ft | 30 kts | 358° |
| 2026-05-06 16:20 | -0.10634 | -78.35688 | 7775 ft | 15 kts | 360° |
| 2026-05-06 16:20 | -0.10575 | -78.35611 | 7778 ft | 17 kts | 86° |
| 2026-05-06 16:20 | -0.10604 | -78.35526 | 7779 ft | 10 kts | 165° |
| 2026-05-06 16:20 | -0.10657 | -78.35518 | 7782 ft | 0 kts | 177° |
| 2026-05-06 16:21 | -0.10807 | -78.35512 | 7789 ft | 54 kts | 178° |
| 2026-05-06 16:21 | -0.11394 | -78.35487 | 7808 ft | 113 kts | 178° |
| 2026-05-06 16:22 | -0.12341 | -78.35447 | 7841 ft | 158 kts | 177° |
| 2026-05-06 16:22 | -0.13556 | -78.35398 | 7900 ft | 191 kts | 178° |
| 2026-05-06 16:22 | -0.14832 | -78.35364 | 8674 ft | 180 kts | 178° |
| 2026-05-06 16:22 | -0.16184 | -78.35348 | 9094 ft | 209 kts | 178° |
| 2026-05-06 16:23 | -0.17683 | -78.35330 | 9483 ft | 226 kts | 177° |
| 2026-05-06 16:23 | -0.19339 | -78.35295 | 9664 ft | 253 kts | 176° |
| 2026-05-06 16:23 | -0.21176 | -78.35162 | 9905 ft | 276 kts | 173° |
| 2026-05-06 16:23 | -0.23167 | -78.34963 | 10157 ft | 300 kts | 172° |
| 2026-05-06 16:24 | -0.25335 | -78.34759 | 10409 ft | 324 kts | 173° |
| 2026-05-06 16:24 | -0.27659 | -78.34572 | 10729 ft | 343 kts | 174° |
| 2026-05-06 16:24 | -0.30058 | -78.34408 | 11428 ft | 348 kts | 174° |
| 2026-05-06 16:24 | -0.32470 | -78.34426 | 12227 ft | 350 kts | 186° |
| 2026-05-06 16:25 | -0.34803 | -78.35207 | 13056 ft | 357 kts | 206° |
| 2026-05-06 16:25 | -0.36768 | -78.36760 | 13795 ft | 367 kts | 226° |
| 2026-05-06 16:25 | -0.38154 | -78.38933 | 14432 ft | 378 kts | 245° |
| 2026-05-06 16:25 | -0.38340 | -78.39412 | 14560 ft | 379 kts | 249° |
| 2026-05-06 16:26 | -0.38455 | -78.39765 | 14643 ft | 380 kts | 252° |
| 2026-05-06 16:26 | -0.38807 | -78.42399 | 15254 ft | 388 kts | 271° |
| 2026-05-06 16:27 | -0.38328 | -78.45025 | 15859 ft | 392 kts | 290° |
| 2026-05-06 16:27 | -0.37051 | -78.47418 | 16536 ft | 392 kts | 309° |
| 2026-05-06 16:27 | -0.27865 | -78.51010 | 18953 ft | 385 kts | 14° |
| 2026-05-06 16:27 | -0.20862 | -78.43848 | 21020 ft | 387 kts | 80° |
| 2026-05-06 16:28 | -0.20815 | -78.40686 | 21604 ft | 392 kts | 98° |
| 2026-05-06 16:28 | -0.21613 | -78.38072 | 22108 ft | 397 kts | 114° |
| 2026-05-06 16:28 | -0.23124 | -78.35747 | 22602 ft | 403 kts | 129° |
| 2026-05-06 16:28 | -0.25242 | -78.33881 | 23080 ft | 411 kts | 144° |
| 2026-05-06 16:29 | -0.27574 | -78.32705 | 23523 ft | 418 kts | 158° |
| 2026-05-06 16:29 | -0.28456 | -78.32423 | 23671 ft | 420 kts | 163° |
| 2026-05-06 16:29 | -0.31374 | -78.32010 | 24089 ft | 429 kts | 177° |
| 2026-05-06 16:29 | -0.34318 | -78.32331 | 24497 ft | 436 kts | 192° |
| 2026-05-06 16:30 | -0.37186 | -78.33345 | 24903 ft | 441 kts | 202° |
| 2026-05-06 16:30 | -0.39058 | -78.34245 | 25173 ft | 443 kts | 205° |
| 2026-05-06 16:30 | -0.42755 | -78.36016 | 25647 ft | 445 kts | 197° |
| 2026-05-06 16:30 | -0.45759 | -78.36731 | 26021 ft | 443 kts | 184° |
| 2026-05-06 16:31 | -0.48824 | -78.36754 | 26410 ft | 440 kts | 171° |
| 2026-05-06 16:31 | -0.51819 | -78.36147 | 26771 ft | 439 kts | 161° |
| 2026-05-06 16:31 | -0.54733 | -78.35215 | 27167 ft | 440 kts | 158° |
| 2026-05-06 16:31 | -0.57625 | -78.34188 | 27536 ft | 442 kts | 158° |
| 2026-05-06 16:32 | -0.60536 | -78.33160 | 27900 ft | 445 kts | 158° |
| 2026-05-06 16:32 | -0.63476 | -78.32161 | 28233 ft | 448 kts | 159° |
| 2026-05-06 16:32 | -0.66440 | -78.31190 | 28590 ft | 450 kts | 160° |
| 2026-05-06 16:32 | -0.69434 | -78.30234 | 28935 ft | 453 kts | 160° |
| 2026-05-06 16:33 | -0.72444 | -78.29285 | 29260 ft | 455 kts | 160° |
| 2026-05-06 16:33 | -0.75472 | -78.28336 | 29575 ft | 457 kts | 160° |
| 2026-05-06 16:33 | -0.78515 | -78.27383 | 29888 ft | 460 kts | 160° |
| 2026-05-06 16:34 | -0.84644 | -78.25461 | 30510 ft | 464 kts | 160° |
| 2026-05-06 16:34 | -0.87687 | -78.24505 | 30748 ft | 466 kts | 160° |
| 2026-05-06 16:34 | -0.90794 | -78.23527 | 31022 ft | 468 kts | 161° |
| 2026-05-06 16:34 | -0.93685 | -78.22616 | 31275 ft | 470 kts | 161° |
| 2026-05-06 16:35 | -0.95875 | -78.21925 | 31508 ft | 471 kts | 161° |
| 2026-05-06 16:35 | -0.98997 | -78.20941 | 31842 ft | 471 kts | 161° |
| 2026-05-06 16:35 | -1.02120 | -78.19956 | 32206 ft | 470 kts | 161° |
| 2026-05-06 16:35 | -1.05235 | -78.18972 | 32592 ft | 469 kts | 161° |
| 2026-05-06 16:36 | -1.08342 | -78.17990 | 32963 ft | 468 kts | 161° |
| 2026-05-06 16:36 | -1.11450 | -78.17008 | 33319 ft | 467 kts | 161° |
| 2026-05-06 16:36 | -1.14545 | -78.16031 | 33663 ft | 466 kts | 161° |
| 2026-05-06 16:36 | -1.17633 | -78.15056 | 33998 ft | 465 kts | 161° |
| 2026-05-06 16:37 | -1.20719 | -78.14082 | 34317 ft | 464 kts | 161° |
| 2026-05-06 16:37 | -1.23794 | -78.13109 | 34585 ft | 463 kts | 161° |
| 2026-05-06 16:37 | -1.26867 | -78.12136 | 34848 ft | 463 kts | 162° |
| 2026-05-06 16:37 | -1.29914 | -78.11170 | 35114 ft | 464 kts | 162° |
| 2026-05-06 16:38 | -1.32982 | -78.10197 | 35439 ft | 462 kts | 162° |
| 2026-05-06 16:38 | -1.36047 | -78.09227 | 35714 ft | 462 kts | 162° |
| 2026-05-06 16:38 | -1.39106 | -78.08258 | 35997 ft | 461 kts | 162° |
| 2026-05-06 16:38 | -1.42159 | -78.07293 | 36267 ft | 460 kts | 162° |
| 2026-05-06 16:39 | -1.45213 | -78.06327 | 36530 ft | 460 kts | 163° |
| 2026-05-06 16:39 | -1.47932 | -78.05466 | 36755 ft | 459 kts | 163° |
| 2026-05-06 16:39 | -1.50971 | -78.04484 | 36983 ft | 459 kts | 161° |
| 2026-05-06 16:39 | -1.53928 | -78.03286 | 37215 ft | 459 kts | 156° |
| 2026-05-06 16:40 | -1.56822 | -78.01952 | 37464 ft | 458 kts | 156° |
| 2026-05-06 16:40 | -1.59703 | -78.00593 | 37673 ft | 458 kts | 156° |
| 2026-05-06 16:40 | -1.62593 | -77.99218 | 37728 ft | 462 kts | 156° |
| 2026-05-06 16:41 | -1.68446 | -77.96431 | 37794 ft | 470 kts | 156° |
| 2026-05-06 16:41 | -1.74396 | -77.93610 | 37833 ft | 476 kts | 156° |
| 2026-05-06 16:42 | -1.84158 | -77.88992 | 38036 ft | 481 kts | 156° |
| 2026-05-06 16:42 | -1.90196 | -77.86136 | 38251 ft | 479 kts | 156° |
| 2026-05-06 16:42 | -1.96222 | -77.83285 | 38412 ft | 479 kts | 157° |
| 2026-05-06 16:42 | -2.02247 | -77.80435 | 38584 ft | 479 kts | 157° |
| 2026-05-06 16:43 | -2.07852 | -77.77785 | 38753 ft | 479 kts | 157° |
| 2026-05-06 16:43 | -2.13865 | -77.74942 | 38915 ft | 478 kts | 157° |
| 2026-05-06 16:43 | -2.19884 | -77.72099 | 39045 ft | 478 kts | 157° |
| 2026-05-06 16:44 | -2.29884 | -77.67378 | 39110 ft | 478 kts | 157° |
| 2026-05-06 16:44 | -2.43933 | -77.60744 | 39096 ft | 478 kts | 157° |
| 2026-05-06 16:45 | -2.55954 | -77.55067 | 39085 ft | 478 kts | 157° |
| 2026-05-06 16:45 | -2.65950 | -77.50347 | 39078 ft | 478 kts | 157° |
| 2026-05-06 16:46 | -2.77977 | -77.44663 | 39077 ft | 478 kts | 156° |
| 2026-05-06 16:46 | -2.90021 | -77.38973 | 39066 ft | 478 kts | 156° |
| 2026-05-06 16:47 | -3.02058 | -77.33290 | 39070 ft | 478 kts | 156° |
| 2026-05-06 16:47 | -3.14034 | -77.27634 | 39061 ft | 479 kts | 156° |
| 2026-05-06 16:48 | -3.26078 | -77.21943 | 39061 ft | 479 kts | 156° |
| 2026-05-06 16:48 | -3.38142 | -77.16240 | 39067 ft | 479 kts | 156° |
| 2026-05-06 16:49 | -3.50203 | -77.10541 | 39058 ft | 480 kts | 156° |
| 2026-05-06 16:49 | -3.62277 | -77.04832 | 39057 ft | 480 kts | 156° |
| 2026-05-06 16:50 | -3.74320 | -76.99135 | 39051 ft | 473 kts | 156° |
| 2026-05-06 16:50 | -3.86193 | -76.93515 | 39054 ft | 474 kts | 156° |
| 2026-05-06 16:51 | -3.98137 | -76.87858 | 39047 ft | 476 kts | 156° |
| 2026-05-06 16:51 | -4.10131 | -76.82176 | 39045 ft | 477 kts | 156° |
| 2026-05-06 16:52 | -4.22149 | -76.76482 | 39056 ft | 478 kts | 156° |
| 2026-05-06 16:52 | -4.34093 | -76.70825 | 39041 ft | 478 kts | 156° |
| 2026-05-06 16:53 | -4.46104 | -76.65131 | 39056 ft | 478 kts | 156° |
| 2026-05-06 16:53 | -4.58132 | -76.59429 | 39040 ft | 478 kts | 156° |
| 2026-05-06 16:54 | -4.70146 | -76.53731 | 39050 ft | 477 kts | 156° |
| 2026-05-06 16:54 | -4.82138 | -76.48043 | 39036 ft | 477 kts | 156° |
| 2026-05-06 16:55 | -4.94124 | -76.42357 | 39049 ft | 476 kts | 156° |
| 2026-05-06 16:55 | -5.06087 | -76.36681 | 39054 ft | 475 kts | 156° |
| 2026-05-06 16:56 | -5.18053 | -76.31003 | 39043 ft | 476 kts | 156° |
| 2026-05-06 16:56 | -5.28739 | -76.25926 | 39044 ft | 477 kts | 156° |
| 2026-05-06 16:57 | -5.34730 | -76.23063 | 39044 ft | 477 kts | 154° |
| 2026-05-06 16:57 | -5.40545 | -76.19946 | 39044 ft | 478 kts | 152° |
| 2026-05-06 16:58 | -5.46400 | -76.16758 | 39044 ft | 479 kts | 152° |
| 2026-05-06 16:58 | -5.52260 | -76.13561 | 39042 ft | 480 kts | 152° |
| 2026-05-06 16:59 | -5.58132 | -76.10359 | 39044 ft | 481 kts | 152° |
| 2026-05-06 16:59 | -5.64019 | -76.07150 | 39051 ft | 482 kts | 152° |
| 2026-05-06 17:00 | -5.69907 | -76.03940 | 39051 ft | 482 kts | 152° |
| 2026-05-06 17:00 | -5.75807 | -76.00723 | 39039 ft | 483 kts | 151° |
| 2026-05-06 17:01 | -5.81710 | -75.97504 | 39051 ft | 483 kts | 151° |
| 2026-05-06 17:01 | -5.87617 | -75.94280 | 39053 ft | 483 kts | 151° |
| 2026-05-06 17:02 | -5.93524 | -75.91056 | 39044 ft | 483 kts | 152° |
| 2026-05-06 17:02 | -5.99435 | -75.87829 | 39044 ft | 484 kts | 152° |
| 2026-05-06 17:03 | -6.05362 | -75.84593 | 39045 ft | 485 kts | 152° |
| 2026-05-06 17:03 | -6.11295 | -75.81354 | 39040 ft | 485 kts | 152° |
| 2026-05-06 17:04 | -6.17233 | -75.78113 | 39046 ft | 486 kts | 152° |
| 2026-05-06 17:04 | -6.23171 | -75.74871 | 39050 ft | 486 kts | 152° |
| 2026-05-06 17:05 | -6.29107 | -75.71632 | 39049 ft | 485 kts | 152° |
| 2026-05-06 17:05 | -6.35039 | -75.68395 | 39047 ft | 485 kts | 151° |
| 2026-05-06 17:06 | -6.40978 | -75.65152 | 39049 ft | 486 kts | 151° |
| 2026-05-06 17:06 | -6.46918 | -75.61909 | 39050 ft | 486 kts | 151° |
| 2026-05-06 17:07 | -6.52864 | -75.58661 | 39051 ft | 486 kts | 151° |
| 2026-05-06 17:07 | -6.58817 | -75.55409 | 39053 ft | 487 kts | 151° |
| 2026-05-06 17:08 | -6.64777 | -75.52151 | 39052 ft | 488 kts | 151° |
| 2026-05-06 17:08 | -6.70749 | -75.48885 | 39057 ft | 489 kts | 151° |
| 2026-05-06 17:09 | -6.76731 | -75.45612 | 39056 ft | 490 kts | 151° |
| 2026-05-06 17:09 | -6.82725 | -75.42331 | 39051 ft | 490 kts | 151° |
| 2026-05-06 17:10 | -6.88719 | -75.39049 | 39058 ft | 491 kts | 151° |
| 2026-05-06 17:10 | -6.94720 | -75.35762 | 39048 ft | 491 kts | 151° |
| 2026-05-06 17:11 | -7.00727 | -75.32471 | 39050 ft | 491 kts | 151° |
| 2026-05-06 17:11 | -7.06719 | -75.29186 | 39053 ft | 490 kts | 151° |
| 2026-05-06 17:12 | -7.12710 | -75.25901 | 39054 ft | 490 kts | 151° |
| 2026-05-06 17:12 | -7.18697 | -75.22617 | 39047 ft | 487 kts | 151° |
| 2026-05-06 17:12 | -7.21630 | -75.21008 | 39048 ft | 473 kts | 152° |
| 2026-05-06 17:13 | -7.24478 | -75.19446 | 39051 ft | 461 kts | 152° |
| 2026-05-06 17:13 | -7.30125 | -75.16347 | 39055 ft | 466 kts | 152° |
| 2026-05-06 17:14 | -7.35837 | -75.13213 | 39030 ft | 467 kts | 152° |
| 2026-05-06 17:14 | -7.41503 | -75.10103 | 39029 ft | 469 kts | 152° |
| 2026-05-06 17:15 | -7.47295 | -75.06923 | 39028 ft | 478 kts | 152° |
| 2026-05-06 17:15 | -7.53146 | -75.03711 | 39028 ft | 478 kts | 152° |
| 2026-05-06 17:16 | -7.58982 | -75.00506 | 39029 ft | 478 kts | 152° |
| 2026-05-06 17:16 | -7.64826 | -74.97296 | 39031 ft | 478 kts | 152° |
| 2026-05-06 17:17 | -7.70662 | -74.94090 | 39023 ft | 478 kts | 152° |
| 2026-05-06 17:17 | -7.76466 | -74.90900 | 39023 ft | 478 kts | 152° |
| 2026-05-06 17:18 | -7.82303 | -74.87691 | 39023 ft | 478 kts | 152° |
| 2026-05-06 17:18 | -7.88143 | -74.84480 | 39022 ft | 478 kts | 152° |
| 2026-05-06 17:19 | -7.93983 | -74.81268 | 39022 ft | 478 kts | 152° |
| 2026-05-06 17:19 | -7.99822 | -74.78055 | 39024 ft | 478 kts | 152° |
| 2026-05-06 17:20 | -8.05659 | -74.74841 | 39022 ft | 478 kts | 152° |
| 2026-05-06 17:20 | -8.11496 | -74.71628 | 39023 ft | 478 kts | 152° |
| 2026-05-06 17:21 | -8.17333 | -74.68412 | 39033 ft | 478 kts | 152° |
| 2026-05-06 17:21 | -8.23172 | -74.65194 | 39043 ft | 478 kts | 152° |
| 2026-05-06 17:22 | -8.28969 | -74.61999 | 39051 ft | 478 kts | 151° |
| 2026-05-06 17:22 | -8.34814 | -74.58775 | 39054 ft | 479 kts | 151° |
| 2026-05-06 17:23 | -8.40638 | -74.55520 | 39055 ft | 479 kts | 150° |
| 2026-05-06 17:23 | -8.46380 | -74.52105 | 39046 ft | 479 kts | 149° |
| 2026-05-06 17:24 | -8.52105 | -74.48671 | 39039 ft | 478 kts | 149° |
| 2026-05-06 17:24 | -8.57836 | -74.45250 | 39028 ft | 479 kts | 149° |
| 2026-05-06 17:25 | -8.63568 | -74.41838 | 39011 ft | 479 kts | 149° |
| 2026-05-06 17:25 | -8.69310 | -74.38422 | 39008 ft | 479 kts | 149° |
| 2026-05-06 17:26 | -8.75053 | -74.35004 | 39004 ft | 479 kts | 149° |
| 2026-05-06 17:26 | -8.80800 | -74.31582 | 39002 ft | 479 kts | 149° |
| 2026-05-06 17:27 | -8.86549 | -74.28158 | 38995 ft | 480 kts | 149° |
| 2026-05-06 17:27 | -8.92301 | -74.24731 | 38995 ft | 480 kts | 149° |
| 2026-05-06 17:28 | -8.98057 | -74.21301 | 38999 ft | 480 kts | 149° |
| 2026-05-06 17:28 | -9.03818 | -74.17868 | 39000 ft | 481 kts | 149° |
| 2026-05-06 17:29 | -9.09583 | -74.14431 | 39000 ft | 481 kts | 149° |
| 2026-05-06 17:29 | -9.15346 | -74.10995 | 39001 ft | 481 kts | 149° |
| 2026-05-06 17:30 | -9.21111 | -74.07555 | 38999 ft | 481 kts | 149° |
| 2026-05-06 17:30 | -9.26875 | -74.04116 | 38992 ft | 481 kts | 149° |
| 2026-05-06 17:31 | -9.32645 | -74.00671 | 38990 ft | 482 kts | 149° |
| 2026-05-06 17:31 | -9.38421 | -73.97222 | 38990 ft | 482 kts | 148° |
| 2026-05-06 17:32 | -9.44190 | -73.93775 | 38992 ft | 482 kts | 148° |
| 2026-05-06 17:32 | -9.49974 | -73.90317 | 38988 ft | 482 kts | 148° |
| 2026-05-06 17:33 | -9.55755 | -73.86859 | 38984 ft | 483 kts | 149° |
| 2026-05-06 17:33 | -9.61561 | -73.83429 | 38987 ft | 483 kts | 152° |
| 2026-05-06 17:34 | -9.66652 | -73.81107 | 38981 ft | 483 kts | 161° |
| 2026-05-06 17:34 | -9.74196 | -73.79066 | 38991 ft | 483 kts | 168° |
| 2026-05-06 17:35 | -9.80751 | -73.77536 | 38994 ft | 483 kts | 167° |
| 2026-05-06 17:35 | -9.86232 | -73.76221 | 38996 ft | 483 kts | 167° |
| 2026-05-06 17:36 | -9.95987 | -73.73840 | 39001 ft | 483 kts | 167° |
| 2026-05-06 17:36 | -10.02511 | -73.72241 | 39004 ft | 482 kts | 167° |
| 2026-05-06 17:37 | -10.09031 | -73.70644 | 38998 ft | 482 kts | 167° |
| 2026-05-06 17:37 | -10.15538 | -73.69049 | 38998 ft | 481 kts | 167° |
| 2026-05-06 17:38 | -10.22025 | -73.67460 | 38813 ft | 475 kts | 167° |
| 2026-05-06 17:38 | -10.25210 | -73.66680 | 38576 ft | 467 kts | 167° |
| 2026-05-06 17:38 | -10.28349 | -73.65910 | 38307 ft | 463 kts | 167° |
| 2026-05-06 17:39 | -10.31498 | -73.65139 | 38037 ft | 468 kts | 167° |
| 2026-05-06 17:39 | -10.34674 | -73.64362 | 37776 ft | 471 kts | 167° |
| 2026-05-06 17:39 | -10.37861 | -73.63582 | 37525 ft | 471 kts | 167° |
| 2026-05-06 17:39 | -10.41051 | -73.62801 | 37264 ft | 471 kts | 167° |
| 2026-05-06 17:40 | -10.44240 | -73.62019 | 37008 ft | 472 kts | 167° |
| 2026-05-06 17:40 | -10.47437 | -73.61235 | 36765 ft | 473 kts | 167° |
| 2026-05-06 17:40 | -10.50639 | -73.60449 | 36521 ft | 474 kts | 167° |
| 2026-05-06 17:40 | -10.53843 | -73.59663 | 36273 ft | 475 kts | 167° |
| 2026-05-06 17:41 | -10.57023 | -73.58883 | 36035 ft | 476 kts | 167° |
| 2026-05-06 17:41 | -10.60245 | -73.58092 | 35800 ft | 477 kts | 166° |
| 2026-05-06 17:41 | -10.63476 | -73.57299 | 35561 ft | 478 kts | 166° |
| 2026-05-06 17:41 | -10.66709 | -73.56505 | 35318 ft | 479 kts | 166° |
| 2026-05-06 17:42 | -10.69955 | -73.55708 | 35092 ft | 480 kts | 166° |
| 2026-05-06 17:42 | -10.73208 | -73.54908 | 34866 ft | 481 kts | 166° |
| 2026-05-06 17:42 | -10.76463 | -73.54108 | 34637 ft | 483 kts | 166° |
| 2026-05-06 17:42 | -10.79733 | -73.53304 | 34411 ft | 484 kts | 166° |
| 2026-05-06 17:43 | -10.83008 | -73.52499 | 34185 ft | 485 kts | 166° |
| 2026-05-06 17:43 | -10.86296 | -73.51690 | 33955 ft | 487 kts | 166° |
| 2026-05-06 17:43 | -10.89590 | -73.50879 | 33697 ft | 487 kts | 166° |
| 2026-05-06 17:43 | -10.92882 | -73.50069 | 33443 ft | 487 kts | 166° |
| 2026-05-06 17:44 | -10.96175 | -73.49257 | 33193 ft | 487 kts | 166° |
| 2026-05-06 17:44 | -10.99471 | -73.48445 | 32945 ft | 487 kts | 166° |
| 2026-05-06 17:44 | -11.02765 | -73.47632 | 32697 ft | 487 kts | 166° |
| 2026-05-06 17:44 | -11.06062 | -73.46819 | 32453 ft | 487 kts | 166° |
| 2026-05-06 17:45 | -11.09357 | -73.46006 | 32209 ft | 488 kts | 166° |
| 2026-05-06 17:45 | -11.12651 | -73.45193 | 31956 ft | 488 kts | 166° |
| 2026-05-06 17:45 | -11.15951 | -73.44379 | 31737 ft | 488 kts | 166° |
| 2026-05-06 17:45 | -11.19248 | -73.43564 | 31502 ft | 488 kts | 166° |
| 2026-05-06 17:46 | -11.22548 | -73.42750 | 31272 ft | 488 kts | 166° |
| 2026-05-06 17:46 | -11.25847 | -73.41935 | 31040 ft | 488 kts | 165° |
| 2026-05-06 17:46 | -11.29152 | -73.41119 | 30813 ft | 488 kts | 165° |
| 2026-05-06 17:46 | -11.32449 | -73.40304 | 30582 ft | 487 kts | 165° |
| 2026-05-06 17:47 | -11.35733 | -73.39492 | 30358 ft | 485 kts | 165° |
| 2026-05-06 17:47 | -11.39005 | -73.38683 | 30135 ft | 482 kts | 165° |
| 2026-05-06 17:47 | -11.42259 | -73.37878 | 29890 ft | 480 kts | 165° |
| 2026-05-06 17:47 | -11.45500 | -73.37075 | 29617 ft | 478 kts | 165° |
| 2026-05-06 17:48 | -11.48722 | -73.36276 | 29361 ft | 475 kts | 165° |
| 2026-05-06 17:48 | -11.51929 | -73.35481 | 29101 ft | 473 kts | 165° |
| 2026-05-06 17:48 | -11.55118 | -73.34689 | 28843 ft | 471 kts | 165° |
| 2026-05-06 17:48 | -11.58298 | -73.33899 | 28588 ft | 469 kts | 165° |
| 2026-05-06 17:49 | -11.61459 | -73.33114 | 28335 ft | 466 kts | 166° |
| 2026-05-06 17:49 | -11.64602 | -73.32334 | 28085 ft | 464 kts | 166° |
| 2026-05-06 17:49 | -11.67734 | -73.31556 | 27838 ft | 462 kts | 166° |
| 2026-05-06 17:49 | -11.70849 | -73.30783 | 27591 ft | 460 kts | 166° |
| 2026-05-06 17:50 | -11.73951 | -73.30013 | 27349 ft | 458 kts | 166° |
| 2026-05-06 17:50 | -11.77036 | -73.29247 | 27109 ft | 455 kts | 166° |
| 2026-05-06 17:50 | -11.80110 | -73.28485 | 26870 ft | 453 kts | 166° |
| 2026-05-06 17:50 | -11.83165 | -73.27726 | 26644 ft | 452 kts | 166° |
| 2026-05-06 17:51 | -11.86222 | -73.26966 | 26400 ft | 451 kts | 166° |
| 2026-05-06 17:51 | -11.89259 | -73.26212 | 26162 ft | 449 kts | 166° |
| 2026-05-06 17:51 | -11.92286 | -73.25459 | 25934 ft | 448 kts | 166° |
| 2026-05-06 17:51 | -11.95321 | -73.24704 | 25921 ft | 451 kts | 166° |
| 2026-05-06 17:52 | -11.98373 | -73.23946 | 26399 ft | 451 kts | 166° |
| 2026-05-06 17:52 | -12.01425 | -73.23188 | 26827 ft | 453 kts | 166° |
| 2026-05-06 17:52 | -12.04503 | -73.22424 | 27192 ft | 457 kts | 166° |
| 2026-05-06 17:52 | -12.07605 | -73.21655 | 27580 ft | 460 kts | 166° |
| 2026-05-06 17:53 | -12.10722 | -73.20881 | 27960 ft | 463 kts | 166° |
| 2026-05-06 17:53 | -12.13864 | -73.20100 | 28311 ft | 466 kts | 166° |
| 2026-05-06 17:53 | -12.17024 | -73.19315 | 28657 ft | 469 kts | 166° |
| 2026-05-06 17:53 | -12.20208 | -73.18525 | 29007 ft | 472 kts | 166° |
| 2026-05-06 17:54 | -12.23412 | -73.17729 | 29332 ft | 475 kts | 166° |
| 2026-05-06 17:54 | -12.26637 | -73.16929 | 29663 ft | 478 kts | 166° |
| 2026-05-06 17:54 | -12.29879 | -73.16123 | 29947 ft | 482 kts | 166° |
| 2026-05-06 17:54 | -12.33145 | -73.15310 | 30025 ft | 483 kts | 166° |
| 2026-05-06 17:55 | -12.48619 | -73.11454 | 30023 ft | 483 kts | 166° |
| 2026-05-06 17:55 | -12.74782 | -73.04927 | 30062 ft | 484 kts | 166° |
| 2026-05-06 17:56 | -13.00951 | -72.98381 | 30138 ft | 484 kts | 166° |
| 2026-05-06 17:56 | -13.09815 | -72.96161 | 30139 ft | 484 kts | 166° |
| 2026-05-06 17:57 | -13.16364 | -72.94521 | 29997 ft | 484 kts | 166° |
| 2026-05-06 17:57 | -13.19822 | -72.93653 | 29716 ft | 480 kts | 166° |
| 2026-05-06 17:57 | -13.23057 | -72.92841 | 29448 ft | 477 kts | 166° |
| 2026-05-06 17:58 | -13.26275 | -72.92034 | 29200 ft | 475 kts | 166° |
| 2026-05-06 17:58 | -13.29459 | -72.91235 | 29038 ft | 467 kts | 166° |
| 2026-05-06 17:58 | -13.32548 | -72.90460 | 28850 ft | 448 kts | 166° |
| 2026-05-06 17:58 | -13.35513 | -72.89716 | 28662 ft | 428 kts | 166° |
| 2026-05-06 17:59 | -13.38345 | -72.88985 | 28329 ft | 413 kts | 161° |
| 2026-05-06 17:59 | -13.40890 | -72.87762 | 27983 ft | 398 kts | 144° |
| 2026-05-06 17:59 | -13.42934 | -72.85864 | 27745 ft | 399 kts | 127° |
| 2026-05-06 17:59 | -13.44359 | -72.83435 | 27507 ft | 397 kts | 110° |
| 2026-05-06 18:00 | -13.45029 | -72.80722 | 27255 ft | 390 kts | 92° |
| 2026-05-06 18:00 | -13.44962 | -72.77949 | 27017 ft | 388 kts | 82° |
| 2026-05-06 18:00 | -13.44634 | -72.75207 | 26782 ft | 387 kts | 81° |
| 2026-05-06 18:00 | -13.44293 | -72.72474 | 26536 ft | 385 kts | 82° |
| 2026-05-06 18:01 | -13.44016 | -72.69746 | 26299 ft | 384 kts | 84° |
| 2026-05-06 18:01 | -13.43801 | -72.67012 | 26063 ft | 383 kts | 85° |
| 2026-05-06 18:01 | -13.43626 | -72.64289 | 25605 ft | 383 kts | 85° |
| 2026-05-06 18:01 | -13.43465 | -72.61531 | 24700 ft | 391 kts | 86° |
| 2026-05-06 18:02 | -13.43302 | -72.58696 | 23444 ft | 404 kts | 86° |
| 2026-05-06 18:02 | -13.43132 | -72.55774 | 22032 ft | 415 kts | 87° |
| 2026-05-06 18:02 | -13.42960 | -72.52828 | 21196 ft | 409 kts | 87° |
| 2026-05-06 18:02 | -13.42793 | -72.49957 | 20691 ft | 394 kts | 87° |
| 2026-05-06 18:03 | -13.42635 | -72.47221 | 20483 ft | 373 kts | 87° |
| 2026-05-06 18:03 | -13.42485 | -72.44636 | 20259 ft | 354 kts | 87° |
| 2026-05-06 18:03 | -13.42343 | -72.42171 | 20154 ft | 341 kts | 87° |
| 2026-05-06 18:03 | -13.42203 | -72.39714 | 20129 ft | 349 kts | 87° |
| 2026-05-06 18:04 | -13.42059 | -72.37217 | 20124 ft | 349 kts | 87° |
| 2026-05-06 18:04 | -13.42000 | -72.34736 | 20064 ft | 347 kts | 94° |
| 2026-05-06 18:04 | -13.42291 | -72.32273 | 19839 ft | 348 kts | 102° |
| 2026-05-06 18:04 | -13.42927 | -72.29888 | 19600 ft | 346 kts | 108° |
| 2026-05-06 18:05 | -13.43660 | -72.27571 | 19532 ft | 335 kts | 109° |
| 2026-05-06 18:05 | -13.44359 | -72.25336 | 19473 ft | 323 kts | 108° |
| 2026-05-06 18:05 | -13.45021 | -72.23157 | 19328 ft | 322 kts | 107° |
| 2026-05-06 18:05 | -13.45698 | -72.20868 | 19145 ft | 344 kts | 107° |
| 2026-05-06 18:06 | -13.46384 | -72.18508 | 18963 ft | 343 kts | 107° |
| 2026-05-06 18:06 | -13.47054 | -72.16181 | 18779 ft | 336 kts | 106° |
| 2026-05-06 18:06 | -13.47714 | -72.13879 | 18588 ft | 336 kts | 106° |
| 2026-05-06 18:06 | -13.48373 | -72.11575 | 18373 ft | 336 kts | 106° |
| 2026-05-06 18:07 | -13.49029 | -72.09283 | 18153 ft | 334 kts | 106° |
| 2026-05-06 18:07 | -13.49684 | -72.07000 | 17946 ft | 333 kts | 106° |
| 2026-05-06 18:07 | -13.50336 | -72.04722 | 17729 ft | 332 kts | 106° |
| 2026-05-06 18:07 | -13.50978 | -72.02484 | 17520 ft | 331 kts | 106° |
| 2026-05-06 18:08 | -13.51637 | -72.00189 | 17273 ft | 330 kts | 106° |
| 2026-05-06 18:08 | -13.52276 | -71.97966 | 17029 ft | 329 kts | 106° |
| 2026-05-06 18:08 | -13.52922 | -71.95716 | 16784 ft | 327 kts | 106° |
| 2026-05-06 18:08 | -13.53567 | -71.93475 | 16549 ft | 327 kts | 106° |
| 2026-05-06 18:09 | -13.54015 | -71.91230 | 16441 ft | 316 kts | 90° |
| 2026-05-06 18:09 | -13.53639 | -71.89067 | 16341 ft | 303 kts | 66° |
| 2026-05-06 18:09 | -13.52478 | -71.87335 | 16248 ft | 290 kts | 41° |
| 2026-05-06 18:09 | -13.50787 | -71.86341 | 16136 ft | 276 kts | 14° |
| 2026-05-06 18:10 | -13.48935 | -71.86244 | 16019 ft | 263 kts | 347° |
| 2026-05-06 18:10 | -13.47303 | -71.87013 | 15720 ft | 259 kts | 319° |
| 2026-05-06 18:10 | -13.46232 | -71.88474 | 15331 ft | 259 kts | 290° |
| 2026-05-06 18:10 | -13.45986 | -71.90284 | 14973 ft | 257 kts | 261° |
| 2026-05-06 18:11 | -13.46577 | -71.91972 | 14431 ft | 251 kts | 237° |
| 2026-05-06 18:11 | -13.47589 | -71.93422 | 13970 ft | 250 kts | 231° |
| 2026-05-06 18:11 | -13.48690 | -71.94802 | 13780 ft | 250 kts | 230° |
| 2026-05-06 18:11 | -13.49606 | -71.96314 | 13652 ft | 251 kts | 252° |
| 2026-05-06 18:12 | -13.49914 | -71.98078 | 13537 ft | 252 kts | 262° |
| 2026-05-06 18:12 | -13.50065 | -71.99837 | 13444 ft | 240 kts | 268° |
| 2026-05-06 18:12 | -13.50044 | -72.01492 | 13236 ft | 225 kts | 272° |
| 2026-05-06 18:12 | -13.49959 | -72.03083 | 13083 ft | 224 kts | 274° |
| 2026-05-06 18:13 | -13.49780 | -72.04686 | 12982 ft | 227 kts | 276° |
| 2026-05-06 18:13 | -13.49629 | -72.06298 | 12885 ft | 227 kts | 278° |
| 2026-05-06 18:13 | -13.49157 | -72.07832 | 12791 ft | 227 kts | 302° |
| 2026-05-06 18:13 | -13.48498 | -72.09302 | 12687 ft | 227 kts | 278° |
| 2026-05-06 18:14 | -13.48491 | -72.10917 | 12656 ft | 226 kts | 276° |
| 2026-05-06 18:14 | -13.48091 | -72.12490 | 12701 ft | 229 kts | 289° |
| 2026-05-06 18:14 | -13.47576 | -72.14032 | 12566 ft | 227 kts | 283° |
| 2026-05-06 18:14 | -13.47351 | -72.15630 | 12429 ft | 227 kts | 266° |
| 2026-05-06 18:15 | -13.48098 | -72.16972 | 12449 ft | 226 kts | 208° |
| 2026-05-06 18:15 | -13.49613 | -72.17050 | 12504 ft | 229 kts | 150° |
| 2026-05-06 18:15 | -13.50455 | -72.15807 | 12763 ft | 217 kts | 83° |
| 2026-05-06 18:15 | -13.49714 | -72.14556 | 13298 ft | 205 kts | 40° |
| 2026-05-06 18:16 | -13.48766 | -72.13351 | 13042 ft | 228 kts | 81° |
| 2026-05-06 18:16 | -13.48864 | -72.11757 | 13081 ft | 228 kts | 102° |
| 2026-05-06 18:16 | -13.49327 | -72.10209 | 13181 ft | 229 kts | 104° |
| 2026-05-06 18:16 | -13.49662 | -72.08644 | 13296 ft | 211 kts | 101° |
| 2026-05-06 18:17 | -13.49987 | -72.07305 | 13364 ft | 180 kts | 120° |
| 2026-05-06 18:17 | -13.50593 | -72.06236 | 13317 ft | 177 kts | 108° |
| 2026-05-06 18:17 | -13.50836 | -72.04986 | 13101 ft | 174 kts | 106° |
| 2026-05-06 18:17 | -13.51343 | -72.03894 | 13216 ft | 170 kts | 117° |
| 2026-05-06 18:18 | -13.51629 | -72.02685 | 13305 ft | 180 kts | 109° |
| 2026-05-06 18:18 | -13.52024 | -72.01483 | 13231 ft | 174 kts | 107° |
| 2026-05-06 18:18 | -13.52413 | -72.00297 | 13002 ft | 180 kts | 111° |
| 2026-05-06 18:18 | -13.52901 | -71.99003 | 12265 ft | 200 kts | 110° |
| 2026-05-06 18:19 | -13.53189 | -71.97663 | 11465 ft | 186 kts | 96° |
| 2026-05-06 18:19 | -13.53328 | -71.96395 | 11041 ft | 169 kts | 97° |
| 2026-05-06 18:19 | -13.53445 | -71.95259 | 10869 ft | 154 kts | 98° |
| 2026-05-06 18:19 | -13.53535 | -71.94392 | 10814 ft | 79 kts | 95° |
| 2026-05-06 18:20 | -13.53563 | -71.94086 | 10811 ft | 17 kts | 96° |
| 2026-05-06 18:20 | -13.53589 | -71.94039 | 10809 ft | 2 kts | 189° |
| 2026-05-06 18:20 | -13.53611 | -71.94057 | 10809 ft | 19 kts | 227° |
| 2026-05-06 18:20 | -13.53687 | -71.94207 | 10816 ft | 19 kts | 234° |
| 2026-05-06 18:21 | -13.53748 | -71.94261 | 10815 ft | 10 kts | 211° |
| 2026-05-06 18:21 | -13.53769 | -71.94299 | 10816 ft | 11 kts | 260° |
| 2026-05-06 18:21 | -13.53768 | -71.94323 | 10816 ft | 0 kts | 272° |